sensor_id;sensor_type;location;lat;lon;timestamp;P1;durP1;ratioP1;P2;durP2;ratioP2
52322;SDS011;38263;52.920;6.238;2022-08-01T00:00:37;8.85;;;5.38;;
52322;SDS011;38263;52.920;6.238;2022-08-01T00:03:03;9.70;;;6.15;;
52322;SDS011;38263;52.920;6.238;2022-08-01T00:05:29;10.50;;;5.93;;
52322;SDS011;38263;52.920;6.238;2022-08-01T00:07:54;8.73;;;5.30;;
52322;SDS011;38263;52.920;6.238;2022-08-01T00:10:20;9.10;;;5.95;;
52322;SDS011;38263;52.920;6.238;2022-08-01T00:12:45;8.13;;;5.95;;
52322;SDS011;38263;52.920;6.238;2022-08-01T00:15:12;9.20;;;5.45;;
52322;SDS011;38263;52.920;6.238;2022-08-01T00:17:39;6.53;;;5.30;;
52322;SDS011;38263;52.920;6.238;2022-08-01T00:20:06;5.97;;;4.22;;
52322;SDS011;38263;52.920;6.238;2022-08-01T00:22:33;8.20;;;4.95;;
52322;SDS011;38263;52.920;6.238;2022-08-01T00:24:59;7.10;;;4.50;;
52322;SDS011;38263;52.920;6.238;2022-08-01T00:27:25;8.13;;;4.50;;
52322;SDS011;38263;52.920;6.238;2022-08-01T00:29:51;10.07;;;5.65;;
52322;SDS011;38263;52.920;6.238;2022-08-01T00:32:17;6.75;;;4.90;;
52322;SDS011;38263;52.920;6.238;2022-08-01T00:34:42;10.27;;;5.68;;
52322;SDS011;38263;52.920;6.238;2022-08-01T00:37:08;7.15;;;4.93;;
52322;SDS011;38263;52.920;6.238;2022-08-01T00:39:34;9.02;;;5.80;;
52322;SDS011;38263;52.920;6.238;2022-08-01T00:42:00;10.27;;;6.82;;
52322;SDS011;38263;52.920;6.238;2022-08-01T00:44:30;13.80;;;5.95;;
52322;SDS011;38263;52.920;6.238;2022-08-01T00:46:56;9.93;;;6.15;;
52322;SDS011;38263;52.920;6.238;2022-08-01T00:49:21;9.52;;;6.03;;
52322;SDS011;38263;52.920;6.238;2022-08-01T00:51:47;11.73;;;6.55;;
52322;SDS011;38263;52.920;6.238;2022-08-01T00:54:13;10.95;;;5.28;;
52322;SDS011;38263;52.920;6.238;2022-08-01T00:56:39;9.45;;;5.97;;
52322;SDS011;38263;52.920;6.238;2022-08-01T00:59:05;7.45;;;5.53;;
52322;SDS011;38263;52.920;6.238;2022-08-01T01:01:32;7.10;;;5.57;;
52322;SDS011;38263;52.920;6.238;2022-08-01T01:03:57;12.93;;;7.05;;
52322;SDS011;38263;52.920;6.238;2022-08-01T01:06:28;10.05;;;5.47;;
52322;SDS011;38263;52.920;6.238;2022-08-01T01:09:02;10.00;;;5.90;;
52322;SDS011;38263;52.920;6.238;2022-08-01T01:14:23;8.40;;;5.32;;
52322;SDS011;38263;52.920;6.238;2022-08-01T01:16:55;8.48;;;6.65;;
52322;SDS011;38263;52.920;6.238;2022-08-01T01:19:23;7.55;;;5.25;;
52322;SDS011;38263;52.920;6.238;2022-08-01T01:24:44;4.57;;;4.00;;
52322;SDS011;38263;52.920;6.238;2022-08-01T01:27:49;7.40;;;5.03;;
52322;SDS011;38263;52.920;6.238;2022-08-01T01:30:23;6.87;;;5.00;;
52322;SDS011;38263;52.920;6.238;2022-08-01T01:32:51;7.43;;;4.90;;
52322;SDS011;38263;52.920;6.238;2022-08-01T01:35:20;6.55;;;4.53;;
52322;SDS011;38263;52.920;6.238;2022-08-01T01:37:49;9.52;;;5.13;;
52322;SDS011;38263;52.920;6.238;2022-08-01T01:40:25;9.13;;;6.40;;
52322;SDS011;38263;52.920;6.238;2022-08-01T01:42:52;7.82;;;5.20;;
52322;SDS011;38263;52.920;6.238;2022-08-01T01:45:20;7.60;;;4.80;;
52322;SDS011;38263;52.920;6.238;2022-08-01T01:47:48;10.55;;;5.28;;
52322;SDS011;38263;52.920;6.238;2022-08-01T01:50:15;10.35;;;5.90;;
52322;SDS011;38263;52.920;6.238;2022-08-01T01:52:42;7.10;;;5.03;;
52322;SDS011;38263;52.920;6.238;2022-08-01T01:55:10;11.07;;;5.80;;
52322;SDS011;38263;52.920;6.238;2022-08-01T01:57:39;15.25;;;5.22;;
52322;SDS011;38263;52.920;6.238;2022-08-01T02:00:07;9.48;;;5.35;;
52322;SDS011;38263;52.920;6.238;2022-08-01T02:02:36;8.77;;;5.40;;
52322;SDS011;38263;52.920;6.238;2022-08-01T02:05:04;8.80;;;4.68;;
52322;SDS011;38263;52.920;6.238;2022-08-01T02:07:31;9.20;;;4.82;;
52322;SDS011;38263;52.920;6.238;2022-08-01T02:09:57;12.68;;;5.57;;
52322;SDS011;38263;52.920;6.238;2022-08-01T02:12:24;7.60;;;4.63;;
52322;SDS011;38263;52.920;6.238;2022-08-01T02:14:51;7.68;;;4.43;;
52322;SDS011;38263;52.920;6.238;2022-08-01T02:17:19;7.68;;;4.40;;
52322;SDS011;38263;52.920;6.238;2022-08-01T02:19:46;5.35;;;4.05;;
52322;SDS011;38263;52.920;6.238;2022-08-01T02:22:26;4.63;;;3.38;;
52322;SDS011;38263;52.920;6.238;2022-08-01T02:24:59;11.68;;;3.92;;
52322;SDS011;38263;52.920;6.238;2022-08-01T02:27:30;8.68;;;2.75;;
52322;SDS011;38263;52.920;6.238;2022-08-01T02:30:04;4.15;;;2.80;;
52322;SDS011;38263;52.920;6.238;2022-08-01T02:35:18;7.07;;;2.10;;
52322;SDS011;38263;52.920;6.238;2022-08-01T02:37:48;4.88;;;2.30;;
52322;SDS011;38263;52.920;6.238;2022-08-01T02:40:14;3.58;;;1.42;;
52322;SDS011;38263;52.920;6.238;2022-08-01T02:42:44;2.17;;;1.60;;
52322;SDS011;38263;52.920;6.238;2022-08-01T02:45:12;4.65;;;1.63;;
52322;SDS011;38263;52.920;6.238;2022-08-01T02:47:38;3.83;;;1.40;;
52322;SDS011;38263;52.920;6.238;2022-08-01T02:50:06;2.70;;;1.38;;
52322;SDS011;38263;52.920;6.238;2022-08-01T02:52:33;3.47;;;1.60;;
52322;SDS011;38263;52.920;6.238;2022-08-01T02:55:00;4.65;;;1.40;;
52322;SDS011;38263;52.920;6.238;2022-08-01T02:57:26;3.97;;;1.48;;
52322;SDS011;38263;52.920;6.238;2022-08-01T02:59:54;2.92;;;1.80;;
52322;SDS011;38263;52.920;6.238;2022-08-01T03:02:22;2.63;;;1.20;;
52322;SDS011;38263;52.920;6.238;2022-08-01T03:04:48;2.92;;;1.65;;
52322;SDS011;38263;52.920;6.238;2022-08-01T03:07:16;5.40;;;1.88;;
52322;SDS011;38263;52.920;6.238;2022-08-01T03:09:44;2.83;;;1.20;;
52322;SDS011;38263;52.920;6.238;2022-08-01T03:12:21;4.30;;;1.42;;
52322;SDS011;38263;52.920;6.238;2022-08-01T03:14:50;3.53;;;1.90;;
52322;SDS011;38263;52.920;6.238;2022-08-01T03:17:19;2.80;;;1.55;;
52322;SDS011;38263;52.920;6.238;2022-08-01T03:19:47;7.95;;;1.95;;
52322;SDS011;38263;52.920;6.238;2022-08-01T03:22:14;4.50;;;1.80;;
52322;SDS011;38263;52.920;6.238;2022-08-01T03:24:41;6.03;;;1.83;;
52322;SDS011;38263;52.920;6.238;2022-08-01T03:27:09;8.50;;;2.75;;
52322;SDS011;38263;52.920;6.238;2022-08-01T03:29:36;6.82;;;2.45;;
52322;SDS011;38263;52.920;6.238;2022-08-01T03:32:04;4.72;;;2.05;;
52322;SDS011;38263;52.920;6.238;2022-08-01T03:34:31;6.72;;;2.22;;
52322;SDS011;38263;52.920;6.238;2022-08-01T03:37:05;4.47;;;2.00;;
52322;SDS011;38263;52.920;6.238;2022-08-01T03:39:39;8.10;;;2.85;;
52322;SDS011;38263;52.920;6.238;2022-08-01T03:42:12;6.40;;;2.53;;
52322;SDS011;38263;52.920;6.238;2022-08-01T03:44:43;5.63;;;2.33;;
52322;SDS011;38263;52.920;6.238;2022-08-01T03:47:15;6.28;;;2.30;;
52322;SDS011;38263;52.920;6.238;2022-08-01T03:49:43;5.88;;;1.95;;
52322;SDS011;38263;52.920;6.238;2022-08-01T03:52:10;6.05;;;2.00;;
52322;SDS011;38263;52.920;6.238;2022-08-01T03:54:37;5.53;;;1.88;;
52322;SDS011;38263;52.920;6.238;2022-08-01T03:57:07;6.28;;;1.90;;
52322;SDS011;38263;52.920;6.238;2022-08-01T03:59:35;4.30;;;2.40;;
52322;SDS011;38263;52.920;6.238;2022-08-01T04:02:01;8.20;;;2.67;;
52322;SDS011;38263;52.920;6.238;2022-08-01T04:04:28;8.07;;;2.17;;
52322;SDS011;38263;52.920;6.238;2022-08-01T04:06:54;10.02;;;2.30;;
52322;SDS011;38263;52.920;6.238;2022-08-01T04:09:20;10.73;;;2.55;;
52322;SDS011;38263;52.920;6.238;2022-08-01T04:11:46;7.78;;;2.25;;
52322;SDS011;38263;52.920;6.238;2022-08-01T04:14:13;12.38;;;2.97;;
52322;SDS011;38263;52.920;6.238;2022-08-01T04:16:38;6.80;;;2.30;;
52322;SDS011;38263;52.920;6.238;2022-08-01T04:19:04;10.18;;;2.72;;
52322;SDS011;38263;52.920;6.238;2022-08-01T04:21:32;10.77;;;2.95;;
52322;SDS011;38263;52.920;6.238;2022-08-01T04:23:59;7.57;;;3.25;;
52322;SDS011;38263;52.920;6.238;2022-08-01T04:26:32;7.15;;;2.55;;
52322;SDS011;38263;52.920;6.238;2022-08-01T04:29:00;11.50;;;2.78;;
52322;SDS011;38263;52.920;6.238;2022-08-01T04:31:27;5.80;;;2.60;;
52322;SDS011;38263;52.920;6.238;2022-08-01T04:33:55;12.35;;;3.60;;
52322;SDS011;38263;52.920;6.238;2022-08-01T04:36:23;13.60;;;3.28;;
52322;SDS011;38263;52.920;6.238;2022-08-01T04:38:50;9.73;;;3.95;;
52322;SDS011;38263;52.920;6.238;2022-08-01T04:41:20;13.13;;;3.90;;
52322;SDS011;38263;52.920;6.238;2022-08-01T04:43:48;14.18;;;3.90;;
52322;SDS011;38263;52.920;6.238;2022-08-01T04:46:16;11.20;;;3.70;;
52322;SDS011;38263;52.920;6.238;2022-08-01T04:48:42;13.52;;;4.05;;
52322;SDS011;38263;52.920;6.238;2022-08-01T04:51:13;14.85;;;3.80;;
52322;SDS011;38263;52.920;6.238;2022-08-01T04:53:46;11.35;;;3.58;;
52322;SDS011;38263;52.920;6.238;2022-08-01T04:56:13;11.88;;;2.92;;
52322;SDS011;38263;52.920;6.238;2022-08-01T04:58:39;10.55;;;3.30;;
52322;SDS011;38263;52.920;6.238;2022-08-01T05:01:06;25.48;;;3.90;;
52322;SDS011;38263;52.920;6.238;2022-08-01T05:03:31;17.00;;;3.40;;
52322;SDS011;38263;52.920;6.238;2022-08-01T05:05:57;15.57;;;3.47;;
52322;SDS011;38263;52.920;6.238;2022-08-01T05:08:22;14.52;;;3.58;;
52322;SDS011;38263;52.920;6.238;2022-08-01T05:10:48;11.20;;;2.90;;
52322;SDS011;38263;52.920;6.238;2022-08-01T05:13:14;15.07;;;3.40;;
52322;SDS011;38263;52.920;6.238;2022-08-01T05:15:40;18.40;;;3.70;;
52322;SDS011;38263;52.920;6.238;2022-08-01T05:18:06;18.60;;;3.50;;
52322;SDS011;38263;52.920;6.238;2022-08-01T05:20:31;14.40;;;3.45;;
52322;SDS011;38263;52.920;6.238;2022-08-01T05:22:57;18.00;;;4.00;;
52322;SDS011;38263;52.920;6.238;2022-08-01T05:25:23;18.30;;;3.53;;
52322;SDS011;38263;52.920;6.238;2022-08-01T05:27:49;17.80;;;3.95;;
52322;SDS011;38263;52.920;6.238;2022-08-01T05:30:14;14.52;;;3.90;;
52322;SDS011;38263;52.920;6.238;2022-08-01T05:32:40;11.30;;;3.55;;
52322;SDS011;38263;52.920;6.238;2022-08-01T05:35:06;15.07;;;3.97;;
52322;SDS011;38263;52.920;6.238;2022-08-01T05:37:33;13.43;;;3.28;;
52322;SDS011;38263;52.920;6.238;2022-08-01T05:39:59;14.90;;;3.45;;
52322;SDS011;38263;52.920;6.238;2022-08-01T05:42:25;15.65;;;3.10;;
52322;SDS011;38263;52.920;6.238;2022-08-01T05:44:51;19.50;;;3.47;;
52322;SDS011;38263;52.920;6.238;2022-08-01T05:47:16;18.92;;;3.20;;
52322;SDS011;38263;52.920;6.238;2022-08-01T05:49:43;15.43;;;3.83;;
52322;SDS011;38263;52.920;6.238;2022-08-01T05:52:10;18.58;;;4.05;;
52322;SDS011;38263;52.920;6.238;2022-08-01T05:54:35;17.35;;;3.55;;
52322;SDS011;38263;52.920;6.238;2022-08-01T05:57:01;8.70;;;2.38;;
52322;SDS011;38263;52.920;6.238;2022-08-01T05:59:27;20.25;;;3.33;;
52322;SDS011;38263;52.920;6.238;2022-08-01T06:01:53;18.55;;;4.07;;
52322;SDS011;38263;52.920;6.238;2022-08-01T06:04:19;16.58;;;3.38;;
52322;SDS011;38263;52.920;6.238;2022-08-01T06:06:44;12.77;;;2.95;;
52322;SDS011;38263;52.920;6.238;2022-08-01T06:09:10;15.93;;;3.20;;
52322;SDS011;38263;52.920;6.238;2022-08-01T06:11:35;16.98;;;3.08;;
52322;SDS011;38263;52.920;6.238;2022-08-01T06:14:01;17.65;;;2.55;;
52322;SDS011;38263;52.920;6.238;2022-08-01T06:16:27;17.55;;;3.13;;
52322;SDS011;38263;52.920;6.238;2022-08-01T06:18:52;14.63;;;2.95;;
52322;SDS011;38263;52.920;6.238;2022-08-01T06:21:18;19.88;;;2.63;;
52322;SDS011;38263;52.920;6.238;2022-08-01T06:23:44;18.65;;;3.72;;
52322;SDS011;38263;52.920;6.238;2022-08-01T06:26:09;20.95;;;3.25;;
52322;SDS011;38263;52.920;6.238;2022-08-01T06:28:35;16.33;;;3.40;;
52322;SDS011;38263;52.920;6.238;2022-08-01T06:31:01;15.57;;;3.55;;
52322;SDS011;38263;52.920;6.238;2022-08-01T06:33:27;17.38;;;3.78;;
52322;SDS011;38263;52.920;6.238;2022-08-01T06:35:53;19.85;;;4.68;;
52322;SDS011;38263;52.920;6.238;2022-08-01T06:38:18;24.45;;;3.17;;
52322;SDS011;38263;52.920;6.238;2022-08-01T06:40:44;14.85;;;3.33;;
52322;SDS011;38263;52.920;6.238;2022-08-01T06:43:10;12.77;;;3.45;;
52322;SDS011;38263;52.920;6.238;2022-08-01T06:45:39;19.73;;;3.33;;
52322;SDS011;38263;52.920;6.238;2022-08-01T06:48:05;21.13;;;3.80;;
52322;SDS011;38263;52.920;6.238;2022-08-01T06:50:31;17.25;;;3.78;;
52322;SDS011;38263;52.920;6.238;2022-08-01T06:52:57;9.30;;;2.72;;
52322;SDS011;38263;52.920;6.238;2022-08-01T06:55:23;14.50;;;3.03;;
52322;SDS011;38263;52.920;6.238;2022-08-01T06:57:49;18.63;;;3.20;;
52322;SDS011;38263;52.920;6.238;2022-08-01T07:00:16;14.73;;;3.55;;
52322;SDS011;38263;52.920;6.238;2022-08-01T07:02:46;19.80;;;4.10;;
52322;SDS011;38263;52.920;6.238;2022-08-01T07:05:12;15.88;;;3.65;;
52322;SDS011;38263;52.920;6.238;2022-08-01T07:07:37;16.92;;;4.65;;
52322;SDS011;38263;52.920;6.238;2022-08-01T07:10:03;19.13;;;4.30;;
52322;SDS011;38263;52.920;6.238;2022-08-01T07:12:29;14.73;;;2.97;;
52322;SDS011;38263;52.920;6.238;2022-08-01T07:14:55;23.30;;;3.78;;
52322;SDS011;38263;52.920;6.238;2022-08-01T07:17:20;20.48;;;3.00;;
52322;SDS011;38263;52.920;6.238;2022-08-01T07:19:46;12.82;;;3.60;;
52322;SDS011;38263;52.920;6.238;2022-08-01T07:22:12;15.10;;;2.78;;
52322;SDS011;38263;52.920;6.238;2022-08-01T07:24:39;19.60;;;3.88;;
52322;SDS011;38263;52.920;6.238;2022-08-01T07:27:06;16.30;;;3.13;;
52322;SDS011;38263;52.920;6.238;2022-08-01T07:29:32;20.27;;;4.15;;
52322;SDS011;38263;52.920;6.238;2022-08-01T07:31:57;11.85;;;2.42;;
52322;SDS011;38263;52.920;6.238;2022-08-01T07:34:23;19.92;;;3.25;;
52322;SDS011;38263;52.920;6.238;2022-08-01T07:36:50;17.17;;;3.20;;
52322;SDS011;38263;52.920;6.238;2022-08-01T07:39:16;12.68;;;2.63;;
52322;SDS011;38263;52.920;6.238;2022-08-01T07:41:42;23.17;;;3.33;;
52322;SDS011;38263;52.920;6.238;2022-08-01T07:44:08;10.82;;;2.40;;
52322;SDS011;38263;52.920;6.238;2022-08-01T07:46:33;12.35;;;2.63;;
52322;SDS011;38263;52.920;6.238;2022-08-01T07:48:59;11.20;;;1.90;;
52322;SDS011;38263;52.920;6.238;2022-08-01T07:51:24;10.98;;;2.30;;
52322;SDS011;38263;52.920;6.238;2022-08-01T07:53:50;13.32;;;3.20;;
52322;SDS011;38263;52.920;6.238;2022-08-01T07:56:15;13.23;;;2.38;;
52322;SDS011;38263;52.920;6.238;2022-08-01T07:58:41;12.90;;;2.28;;
52322;SDS011;38263;52.920;6.238;2022-08-01T08:01:07;13.10;;;3.17;;
52322;SDS011;38263;52.920;6.238;2022-08-01T08:03:32;15.35;;;3.00;;
52322;SDS011;38263;52.920;6.238;2022-08-01T08:05:58;15.07;;;2.72;;
52322;SDS011;38263;52.920;6.238;2022-08-01T08:08:23;12.27;;;2.53;;
52322;SDS011;38263;52.920;6.238;2022-08-01T08:10:49;8.75;;;1.83;;
52322;SDS011;38263;52.920;6.238;2022-08-01T08:13:15;14.95;;;2.17;;
52322;SDS011;38263;52.920;6.238;2022-08-01T08:15:40;12.02;;;2.17;;
52322;SDS011;38263;52.920;6.238;2022-08-01T08:18:06;13.88;;;2.45;;
52322;SDS011;38263;52.920;6.238;2022-08-01T08:20:31;13.68;;;2.53;;
52322;SDS011;38263;52.920;6.238;2022-08-01T08:22:57;9.13;;;2.70;;
52322;SDS011;38263;52.920;6.238;2022-08-01T08:25:24;8.93;;;2.38;;
52322;SDS011;38263;52.920;6.238;2022-08-01T08:27:50;11.18;;;2.00;;
52322;SDS011;38263;52.920;6.238;2022-08-01T08:30:17;10.40;;;2.00;;
52322;SDS011;38263;52.920;6.238;2022-08-01T08:32:43;13.60;;;2.53;;
52322;SDS011;38263;52.920;6.238;2022-08-01T08:35:08;13.75;;;1.95;;
52322;SDS011;38263;52.920;6.238;2022-08-01T08:37:35;9.82;;;1.70;;
52322;SDS011;38263;52.920;6.238;2022-08-01T08:40:02;12.52;;;1.90;;
52322;SDS011;38263;52.920;6.238;2022-08-01T08:42:29;10.73;;;2.10;;
52322;SDS011;38263;52.920;6.238;2022-08-01T08:44:54;9.52;;;1.80;;
52322;SDS011;38263;52.920;6.238;2022-08-01T08:47:21;10.35;;;1.92;;
52322;SDS011;38263;52.920;6.238;2022-08-01T08:49:49;11.40;;;2.17;;
52322;SDS011;38263;52.920;6.238;2022-08-01T08:52:17;9.95;;;1.45;;
52322;SDS011;38263;52.920;6.238;2022-08-01T08:54:45;8.15;;;1.20;;
52322;SDS011;38263;52.920;6.238;2022-08-01T08:57:12;10.93;;;2.17;;
52322;SDS011;38263;52.920;6.238;2022-08-01T08:59:39;7.10;;;1.50;;
52322;SDS011;38263;52.920;6.238;2022-08-01T09:02:05;8.02;;;1.48;;
52322;SDS011;38263;52.920;6.238;2022-08-01T09:04:32;9.52;;;1.38;;
52322;SDS011;38263;52.920;6.238;2022-08-01T09:06:58;15.02;;;2.40;;
52322;SDS011;38263;52.920;6.238;2022-08-01T09:09:23;8.43;;;1.70;;
52322;SDS011;38263;52.920;6.238;2022-08-01T09:11:49;12.82;;;2.03;;
52322;SDS011;38263;52.920;6.238;2022-08-01T09:14:16;9.85;;;1.58;;
52322;SDS011;38263;52.920;6.238;2022-08-01T09:16:59;9.38;;;1.38;;
52322;SDS011;38263;52.920;6.238;2022-08-01T09:19:27;9.07;;;1.77;;
52322;SDS011;38263;52.920;6.238;2022-08-01T09:22:14;10.38;;;2.53;;
52322;SDS011;38263;52.920;6.238;2022-08-01T09:24:52;8.27;;;1.38;;
52322;SDS011;38263;52.920;6.238;2022-08-01T09:27:24;12.45;;;2.10;;
52322;SDS011;38263;52.920;6.238;2022-08-01T09:29:53;6.53;;;1.73;;
52322;SDS011;38263;52.920;6.238;2022-08-01T09:32:19;10.43;;;1.45;;
52322;SDS011;38263;52.920;6.238;2022-08-01T09:34:45;6.90;;;1.50;;
52322;SDS011;38263;52.920;6.238;2022-08-01T09:37:11;13.50;;;1.60;;
52322;SDS011;38263;52.920;6.238;2022-08-01T09:39:42;7.50;;;1.40;;
52322;SDS011;38263;52.920;6.238;2022-08-01T09:42:23;10.93;;;1.58;;
52322;SDS011;38263;52.920;6.238;2022-08-01T09:44:49;12.98;;;1.65;;
52322;SDS011;38263;52.920;6.238;2022-08-01T09:47:15;10.35;;;1.70;;
52322;SDS011;38263;52.920;6.238;2022-08-01T09:49:43;7.65;;;1.85;;
52322;SDS011;38263;52.920;6.238;2022-08-01T09:52:17;9.20;;;1.48;;
52322;SDS011;38263;52.920;6.238;2022-08-01T09:54:51;11.48;;;1.58;;
52322;SDS011;38263;52.920;6.238;2022-08-01T09:57:21;12.45;;;1.60;;
52322;SDS011;38263;52.920;6.238;2022-08-01T09:59:48;8.48;;;1.58;;
52322;SDS011;38263;52.920;6.238;2022-08-01T10:02:32;6.57;;;1.27;;
52322;SDS011;38263;52.920;6.238;2022-08-01T10:04:58;5.95;;;1.58;;
52322;SDS011;38263;52.920;6.238;2022-08-01T10:07:24;6.50;;;1.38;;
52322;SDS011;38263;52.920;6.238;2022-08-01T10:09:50;10.88;;;1.52;;
52322;SDS011;38263;52.920;6.238;2022-08-01T10:12:17;6.57;;;1.58;;
52322;SDS011;38263;52.920;6.238;2022-08-01T10:14:45;6.28;;;1.13;;
52322;SDS011;38263;52.920;6.238;2022-08-01T10:17:15;6.05;;;1.25;;
52322;SDS011;38263;52.920;6.238;2022-08-01T10:19:42;7.70;;;1.40;;
52322;SDS011;38263;52.920;6.238;2022-08-01T10:22:09;8.30;;;1.20;;
52322;SDS011;38263;52.920;6.238;2022-08-01T10:24:37;7.25;;;1.25;;
52322;SDS011;38263;52.920;6.238;2022-08-01T10:27:05;12.35;;;1.73;;
52322;SDS011;38263;52.920;6.238;2022-08-01T10:32:08;7.47;;;2.00;;
52322;SDS011;38263;52.920;6.238;2022-08-01T10:34:34;4.78;;;1.20;;
52322;SDS011;38263;52.920;6.238;2022-08-01T10:37:01;4.95;;;0.90;;
52322;SDS011;38263;52.920;6.238;2022-08-01T10:39:27;7.97;;;1.50;;
52322;SDS011;38263;52.920;6.238;2022-08-01T10:41:55;8.15;;;1.33;;
52322;SDS011;38263;52.920;6.238;2022-08-01T10:44:22;8.98;;;1.20;;
52322;SDS011;38263;52.920;6.238;2022-08-01T10:46:50;7.05;;;1.08;;
52322;SDS011;38263;52.920;6.238;2022-08-01T10:49:19;5.45;;;0.93;;
52322;SDS011;38263;52.920;6.238;2022-08-01T10:51:47;8.50;;;1.65;;
52322;SDS011;38263;52.920;6.238;2022-08-01T10:54:13;7.32;;;1.00;;
52322;SDS011;38263;52.920;6.238;2022-08-01T10:56:43;6.57;;;1.25;;
52322;SDS011;38263;52.920;6.238;2022-08-01T10:59:10;5.95;;;1.10;;
52322;SDS011;38263;52.920;6.238;2022-08-01T11:01:44;11.77;;;1.65;;
52322;SDS011;38263;52.920;6.238;2022-08-01T11:04:34;6.97;;;1.15;;
52322;SDS011;38263;52.920;6.238;2022-08-01T11:07:13;7.70;;;1.58;;
52322;SDS011;38263;52.920;6.238;2022-08-01T11:09:44;12.90;;;1.35;;
52322;SDS011;38263;52.920;6.238;2022-08-01T11:12:12;6.28;;;1.23;;
52322;SDS011;38263;52.920;6.238;2022-08-01T11:20:10;9.93;;;1.30;;
52322;SDS011;38263;52.920;6.238;2022-08-01T11:25:23;6.03;;;1.50;;
52322;SDS011;38263;52.920;6.238;2022-08-01T11:28:02;7.35;;;0.95;;
52322;SDS011;38263;52.920;6.238;2022-08-01T11:31:32;3.67;;;0.98;;
52322;SDS011;38263;52.920;6.238;2022-08-01T11:38:39;6.20;;;1.20;;
52322;SDS011;38263;52.920;6.238;2022-08-01T11:43:55;8.73;;;1.20;;
52322;SDS011;38263;52.920;6.238;2022-08-01T11:46:52;5.75;;;0.88;;
52322;SDS011;38263;52.920;6.238;2022-08-01T11:52:13;7.90;;;1.40;;
52322;SDS011;38263;52.920;6.238;2022-08-01T11:54:48;6.07;;;1.45;;
52322;SDS011;38263;52.920;6.238;2022-08-01T11:57:23;4.78;;;0.80;;
52322;SDS011;38263;52.920;6.238;2022-08-01T12:02:18;6.03;;;1.00;;
52322;SDS011;38263;52.920;6.238;2022-08-01T12:04:45;6.53;;;0.90;;
52322;SDS011;38263;52.920;6.238;2022-08-01T12:07:13;10.35;;;1.40;;
52322;SDS011;38263;52.920;6.238;2022-08-01T12:09:42;8.77;;;1.05;;
52322;SDS011;38263;52.920;6.238;2022-08-01T12:12:08;7.90;;;1.05;;
52322;SDS011;38263;52.920;6.238;2022-08-01T12:14:34;5.90;;;0.85;;
52322;SDS011;38263;52.920;6.238;2022-08-01T12:17:00;3.80;;;0.57;;
52322;SDS011;38263;52.920;6.238;2022-08-01T12:19:25;8.57;;;0.98;;
52322;SDS011;38263;52.920;6.238;2022-08-01T12:22:07;9.77;;;1.05;;
52322;SDS011;38263;52.920;6.238;2022-08-01T12:24:35;8.02;;;1.10;;
52322;SDS011;38263;52.920;6.238;2022-08-01T12:27:02;6.65;;;1.17;;
52322;SDS011;38263;52.920;6.238;2022-08-01T12:29:32;3.60;;;0.80;;
52322;SDS011;38263;52.920;6.238;2022-08-01T12:31:58;3.67;;;0.60;;
52322;SDS011;38263;52.920;6.238;2022-08-01T12:34:24;11.60;;;1.27;;
52322;SDS011;38263;52.920;6.238;2022-08-01T12:36:51;5.15;;;0.80;;
52322;SDS011;38263;52.920;6.238;2022-08-01T12:39:16;7.03;;;0.90;;
52322;SDS011;38263;52.920;6.238;2022-08-01T12:41:42;5.32;;;0.90;;
52322;SDS011;38263;52.920;6.238;2022-08-01T12:44:15;8.15;;;1.13;;
52322;SDS011;38263;52.920;6.238;2022-08-01T12:46:41;3.53;;;0.70;;
52322;SDS011;38263;52.920;6.238;2022-08-01T12:49:07;8.65;;;1.27;;
52322;SDS011;38263;52.920;6.238;2022-08-01T12:51:33;6.60;;;0.90;;
52322;SDS011;38263;52.920;6.238;2022-08-01T12:53:59;7.40;;;1.00;;
52322;SDS011;38263;52.920;6.238;2022-08-01T12:56:31;6.75;;;0.60;;
52322;SDS011;38263;52.920;6.238;2022-08-01T12:58:58;4.95;;;1.05;;
52322;SDS011;38263;52.920;6.238;2022-08-01T13:01:27;5.32;;;0.93;;
52322;SDS011;38263;52.920;6.238;2022-08-01T13:04:03;5.43;;;0.80;;
52322;SDS011;38263;52.920;6.238;2022-08-01T13:06:29;9.18;;;0.95;;
52322;SDS011;38263;52.920;6.238;2022-08-01T13:09:04;6.78;;;0.70;;
52322;SDS011;38263;52.920;6.238;2022-08-01T13:11:34;4.25;;;0.63;;
52322;SDS011;38263;52.920;6.238;2022-08-01T13:13:59;5.13;;;0.98;;
52322;SDS011;38263;52.920;6.238;2022-08-01T13:16:26;4.82;;;0.98;;
52322;SDS011;38263;52.920;6.238;2022-08-01T13:18:52;4.95;;;0.80;;
52322;SDS011;38263;52.920;6.238;2022-08-01T13:26:38;4.65;;;0.70;;
52322;SDS011;38263;52.920;6.238;2022-08-01T13:29:07;5.10;;;0.75;;
52322;SDS011;38263;52.920;6.238;2022-08-01T13:31:34;7.82;;;0.88;;
52322;SDS011;38263;52.920;6.238;2022-08-01T13:34:00;3.53;;;0.70;;
52322;SDS011;38263;52.920;6.238;2022-08-01T13:36:27;9.23;;;1.38;;
52322;SDS011;38263;52.920;6.238;2022-08-01T13:38:53;5.97;;;0.73;;
52322;SDS011;38263;52.920;6.238;2022-08-01T13:41:38;7.32;;;0.85;;
52322;SDS011;38263;52.920;6.238;2022-08-01T13:44:04;4.97;;;0.95;;
52322;SDS011;38263;52.920;6.238;2022-08-01T13:46:30;7.93;;;0.90;;
52322;SDS011;38263;52.920;6.238;2022-08-01T13:48:56;6.68;;;0.77;;
52322;SDS011;38263;52.920;6.238;2022-08-01T13:51:21;7.78;;;0.80;;
52322;SDS011;38263;52.920;6.238;2022-08-01T13:53:47;9.18;;;0.80;;
52322;SDS011;38263;52.920;6.238;2022-08-01T13:56:13;5.20;;;0.82;;
52322;SDS011;38263;52.920;6.238;2022-08-01T13:58:38;4.00;;;0.68;;
52322;SDS011;38263;52.920;6.238;2022-08-01T14:01:04;7.10;;;1.20;;
52322;SDS011;38263;52.920;6.238;2022-08-01T14:03:29;5.95;;;1.40;;
52322;SDS011;38263;52.920;6.238;2022-08-01T14:05:55;4.57;;;0.90;;
52322;SDS011;38263;52.920;6.238;2022-08-01T14:08:21;7.75;;;1.58;;
52322;SDS011;38263;52.920;6.238;2022-08-01T14:10:47;4.82;;;0.75;;
52322;SDS011;38263;52.920;6.238;2022-08-01T14:13:12;4.82;;;1.05;;
52322;SDS011;38263;52.920;6.238;2022-08-01T14:15:38;5.07;;;0.50;;
52322;SDS011;38263;52.920;6.238;2022-08-01T14:18:04;5.78;;;0.70;;
52322;SDS011;38263;52.920;6.238;2022-08-01T14:20:32;5.32;;;0.85;;
52322;SDS011;38263;52.920;6.238;2022-08-01T14:23:00;3.75;;;0.82;;
52322;SDS011;38263;52.920;6.238;2022-08-01T14:25:26;6.22;;;0.73;;
52322;SDS011;38263;52.920;6.238;2022-08-01T14:27:52;4.97;;;0.60;;
52322;SDS011;38263;52.920;6.238;2022-08-01T14:30:17;8.95;;;0.90;;
52322;SDS011;38263;52.920;6.238;2022-08-01T14:32:43;5.82;;;0.95;;
52322;SDS011;38263;52.920;6.238;2022-08-01T14:35:08;4.45;;;0.75;;
52322;SDS011;38263;52.920;6.238;2022-08-01T14:37:34;5.03;;;0.80;;
52322;SDS011;38263;52.920;6.238;2022-08-01T14:40:00;5.50;;;0.88;;
52322;SDS011;38263;52.920;6.238;2022-08-01T14:42:30;3.40;;;0.57;;
52322;SDS011;38263;52.920;6.238;2022-08-01T14:44:55;7.53;;;1.02;;
52322;SDS011;38263;52.920;6.238;2022-08-01T14:47:21;7.38;;;1.05;;
52322;SDS011;38263;52.920;6.238;2022-08-01T14:49:46;2.28;;;0.30;;
52322;SDS011;38263;52.920;6.238;2022-08-01T14:52:12;13.65;;;1.02;;
52322;SDS011;38263;52.920;6.238;2022-08-01T14:54:37;7.03;;;1.38;;
52322;SDS011;38263;52.920;6.238;2022-08-01T14:57:03;4.15;;;0.60;;
52322;SDS011;38263;52.920;6.238;2022-08-01T14:59:28;5.15;;;0.80;;
52322;SDS011;38263;52.920;6.238;2022-08-01T15:01:54;9.05;;;0.88;;
52322;SDS011;38263;52.920;6.238;2022-08-01T15:04:20;10.55;;;0.95;;
52322;SDS011;38263;52.920;6.238;2022-08-01T15:06:46;5.55;;;0.70;;
52322;SDS011;38263;52.920;6.238;2022-08-01T15:09:11;5.90;;;1.75;;
52322;SDS011;38263;52.920;6.238;2022-08-01T15:11:37;4.80;;;0.68;;
52322;SDS011;38263;52.920;6.238;2022-08-01T15:14:02;5.97;;;0.90;;
52322;SDS011;38263;52.920;6.238;2022-08-01T15:16:46;6.32;;;0.88;;
52322;SDS011;38263;52.920;6.238;2022-08-01T15:19:12;2.35;;;0.70;;
52322;SDS011;38263;52.920;6.238;2022-08-01T15:21:38;6.68;;;0.80;;
52322;SDS011;38263;52.920;6.238;2022-08-01T15:24:04;4.47;;;0.60;;